sensor_id;sensor_type;location;lat;lon;timestamp;P1;durP1;ratioP1;P2;durP2;ratioP2
20056;SDS011;10189;49.546;7.906;2022-11-14T00:00:27;32.92;;;22.48;;
20056;SDS011;10189;49.546;7.906;2022-11-14T00:03:13;30.00;;;21.77;;
20056;SDS011;10189;49.546;7.906;2022-11-14T00:05:57;28.65;;;20.73;;
20056;SDS011;10189;49.546;7.906;2022-11-14T00:08:42;29.27;;;20.63;;
20056;SDS011;10189;49.546;7.906;2022-11-14T00:11:27;31.17;;;23.10;;
20056;SDS011;10189;49.546;7.906;2022-11-14T00:14:11;28.92;;;22.27;;
20056;SDS011;10189;49.546;7.906;2022-11-14T00:16:56;29.55;;;22.60;;
20056;SDS011;10189;49.546;7.906;2022-11-14T00:19:40;28.92;;;21.42;;
20056;SDS011;10189;49.546;7.906;2022-11-14T00:22:25;29.75;;;21.15;;
20056;SDS011;10189;49.546;7.906;2022-11-14T00:25:09;28.30;;;21.02;;
20056;SDS011;10189;49.546;7.906;2022-11-14T00:27:55;28.35;;;20.92;;
20056;SDS011;10189;49.546;7.906;2022-11-14T00:30:47;26.00;;;20.48;;
20056;SDS011;10189;49.546;7.906;2022-11-14T00:33:32;30.10;;;20.98;;
20056;SDS011;10189;49.546;7.906;2022-11-14T00:36:16;27.17;;;19.40;;
20056;SDS011;10189;49.546;7.906;2022-11-14T00:39:01;28.38;;;20.58;;
20056;SDS011;10189;49.546;7.906;2022-11-14T00:41:46;29.63;;;21.27;;
20056;SDS011;10189;49.546;7.906;2022-11-14T00:44:31;33.55;;;22.67;;
20056;SDS011;10189;49.546;7.906;2022-11-14T00:47:16;48.25;;;28.38;;
20056;SDS011;10189;49.546;7.906;2022-11-14T00:50:00;59.03;;;32.53;;
20056;SDS011;10189;49.546;7.906;2022-11-14T00:52:45;80.80;;;37.80;;
20056;SDS011;10189;49.546;7.906;2022-11-14T00:55:30;62.88;;;33.13;;
20056;SDS011;10189;49.546;7.906;2022-11-14T00:58:14;40.97;;;25.63;;
20056;SDS011;10189;49.546;7.906;2022-11-14T01:00:59;31.05;;;20.95;;
20056;SDS011;10189;49.546;7.906;2022-11-14T01:03:47;28.58;;;19.60;;
20056;SDS011;10189;49.546;7.906;2022-11-14T01:06:33;30.25;;;20.30;;
20056;SDS011;10189;49.546;7.906;2022-11-14T01:09:17;31.17;;;21.25;;
20056;SDS011;10189;49.546;7.906;2022-11-14T01:12:02;29.55;;;20.10;;
20056;SDS011;10189;49.546;7.906;2022-11-14T01:14:47;31.13;;;21.48;;
20056;SDS011;10189;49.546;7.906;2022-11-14T01:17:32;28.63;;;19.50;;
20056;SDS011;10189;49.546;7.906;2022-11-14T01:20:16;30.60;;;20.92;;
20056;SDS011;10189;49.546;7.906;2022-11-14T01:23:01;31.02;;;21.08;;
20056;SDS011;10189;49.546;7.906;2022-11-14T01:25:46;39.33;;;26.73;;
20056;SDS011;10189;49.546;7.906;2022-11-14T01:28:30;48.97;;;32.60;;
20056;SDS011;10189;49.546;7.906;2022-11-14T01:31:16;48.03;;;30.30;;
20056;SDS011;10189;49.546;7.906;2022-11-14T01:34:04;60.83;;;34.45;;
20056;SDS011;10189;49.546;7.906;2022-11-14T01:36:48;57.92;;;35.15;;
20056;SDS011;10189;49.546;7.906;2022-11-14T01:39:33;59.28;;;32.70;;
20056;SDS011;10189;49.546;7.906;2022-11-14T01:42:17;66.80;;;36.45;;
20056;SDS011;10189;49.546;7.906;2022-11-14T01:52:09;55.92;;;30.70;;
20056;SDS011;10189;49.546;7.906;2022-11-14T01:55:05;48.63;;;29.77;;
20056;SDS011;10189;49.546;7.906;2022-11-14T01:57:53;54.95;;;32.03;;
20056;SDS011;10189;49.546;7.906;2022-11-14T02:00:39;46.80;;;28.27;;
20056;SDS011;10189;49.546;7.906;2022-11-14T02:03:24;46.35;;;27.63;;
20056;SDS011;10189;49.546;7.906;2022-11-14T02:06:10;54.17;;;30.40;;
20056;SDS011;10189;49.546;7.906;2022-11-14T02:09:01;56.60;;;32.35;;
20056;SDS011;10189;49.546;7.906;2022-11-14T02:11:49;69.20;;;39.75;;
20056;SDS011;10189;49.546;7.906;2022-11-14T02:14:37;60.35;;;33.72;;
20056;SDS011;10189;49.546;7.906;2022-11-14T02:17:24;50.88;;;29.52;;
20056;SDS011;10189;49.546;7.906;2022-11-14T02:22:54;60.85;;;32.80;;
20056;SDS011;10189;49.546;7.906;2022-11-14T02:25:39;56.92;;;31.48;;
20056;SDS011;10189;49.546;7.906;2022-11-14T02:28:24;68.72;;;35.35;;
20056;SDS011;10189;49.546;7.906;2022-11-14T02:31:10;62.63;;;33.22;;
20056;SDS011;10189;49.546;7.906;2022-11-14T02:33:54;65.05;;;32.30;;
20056;SDS011;10189;49.546;7.906;2022-11-14T02:36:39;67.80;;;34.83;;
20056;SDS011;10189;49.546;7.906;2022-11-14T02:39:23;67.93;;;33.03;;
20056;SDS011;10189;49.546;7.906;2022-11-14T02:42:08;70.15;;;33.53;;
20056;SDS011;10189;49.546;7.906;2022-11-14T02:44:53;65.10;;;31.63;;
20056;SDS011;10189;49.546;7.906;2022-11-14T02:47:37;79.93;;;41.40;;
20056;SDS011;10189;49.546;7.906;2022-11-14T02:50:22;75.32;;;37.15;;
20056;SDS011;10189;49.546;7.906;2022-11-14T02:53:06;70.18;;;33.10;;
20056;SDS011;10189;49.546;7.906;2022-11-14T02:55:51;76.72;;;36.53;;
20056;SDS011;10189;49.546;7.906;2022-11-14T02:58:36;70.28;;;34.78;;
20056;SDS011;10189;49.546;7.906;2022-11-14T03:01:20;78.03;;;36.88;;
20056;SDS011;10189;49.546;7.906;2022-11-14T03:04:05;74.95;;;33.85;;
20056;SDS011;10189;49.546;7.906;2022-11-14T03:06:49;70.57;;;32.45;;
20056;SDS011;10189;49.546;7.906;2022-11-14T03:09:34;65.28;;;31.67;;
20056;SDS011;10189;49.546;7.906;2022-11-14T03:12:19;73.30;;;32.90;;
20056;SDS011;10189;49.546;7.906;2022-11-14T03:15:05;65.72;;;31.17;;
20056;SDS011;10189;49.546;7.906;2022-11-14T03:17:50;69.50;;;31.73;;
20056;SDS011;10189;49.546;7.906;2022-11-14T03:20:35;65.38;;;30.48;;
20056;SDS011;10189;49.546;7.906;2022-11-14T03:23:20;57.67;;;28.55;;
20056;SDS011;10189;49.546;7.906;2022-11-14T03:26:05;64.80;;;30.20;;
20056;SDS011;10189;49.546;7.906;2022-11-14T03:28:52;50.00;;;26.25;;
20056;SDS011;10189;49.546;7.906;2022-11-14T03:31:37;55.65;;;27.15;;
20056;SDS011;10189;49.546;7.906;2022-11-14T03:34:22;58.47;;;27.33;;
20056;SDS011;10189;49.546;7.906;2022-11-14T03:37:06;49.30;;;26.08;;
20056;SDS011;10189;49.546;7.906;2022-11-14T03:39:51;49.30;;;25.35;;
20056;SDS011;10189;49.546;7.906;2022-11-14T03:42:36;47.92;;;25.63;;
20056;SDS011;10189;49.546;7.906;2022-11-14T03:45:21;53.58;;;26.88;;
20056;SDS011;10189;49.546;7.906;2022-11-14T03:48:05;53.60;;;27.50;;
20056;SDS011;10189;49.546;7.906;2022-11-14T03:50:51;52.65;;;26.80;;
20056;SDS011;10189;49.546;7.906;2022-11-14T03:53:35;49.70;;;26.05;;
20056;SDS011;10189;49.546;7.906;2022-11-14T03:56:20;48.83;;;25.83;;
20056;SDS011;10189;49.546;7.906;2022-11-14T03:59:04;50.67;;;26.60;;
20056;SDS011;10189;49.546;7.906;2022-11-14T04:01:49;49.67;;;25.40;;
20056;SDS011;10189;49.546;7.906;2022-11-14T04:04:34;48.88;;;25.63;;
20056;SDS011;10189;49.546;7.906;2022-11-14T04:07:18;48.70;;;25.02;;
20056;SDS011;10189;49.546;7.906;2022-11-14T04:10:03;47.22;;;24.88;;
20056;SDS011;10189;49.546;7.906;2022-11-14T04:12:49;45.05;;;23.25;;
20056;SDS011;10189;49.546;7.906;2022-11-14T04:15:36;50.30;;;24.52;;
20056;SDS011;10189;49.546;7.906;2022-11-14T04:18:21;47.22;;;24.75;;
20056;SDS011;10189;49.546;7.906;2022-11-14T04:21:06;48.72;;;24.52;;
20056;SDS011;10189;49.546;7.906;2022-11-14T04:23:50;48.40;;;25.55;;
20056;SDS011;10189;49.546;7.906;2022-11-14T04:26:35;43.88;;;23.63;;
20056;SDS011;10189;49.546;7.906;2022-11-14T04:29:20;46.60;;;22.95;;
20056;SDS011;10189;49.546;7.906;2022-11-14T04:32:04;43.83;;;23.60;;
20056;SDS011;10189;49.546;7.906;2022-11-14T04:34:49;47.08;;;23.90;;
20056;SDS011;10189;49.546;7.906;2022-11-14T04:37:34;45.70;;;23.25;;
20056;SDS011;10189;49.546;7.906;2022-11-14T04:40:21;47.42;;;23.98;;
20056;SDS011;10189;49.546;7.906;2022-11-14T04:43:05;51.97;;;25.88;;
20056;SDS011;10189;49.546;7.906;2022-11-14T04:45:50;46.85;;;24.70;;
20056;SDS011;10189;49.546;7.906;2022-11-14T04:48:34;50.50;;;24.90;;
20056;SDS011;10189;49.546;7.906;2022-11-14T04:51:19;60.03;;;28.38;;
20056;SDS011;10189;49.546;7.906;2022-11-14T04:54:04;48.90;;;25.95;;
20056;SDS011;10189;49.546;7.906;2022-11-14T04:56:48;53.38;;;27.00;;
20056;SDS011;10189;49.546;7.906;2022-11-14T04:59:33;51.20;;;26.58;;
20056;SDS011;10189;49.546;7.906;2022-11-14T05:02:17;50.20;;;25.52;;
20056;SDS011;10189;49.546;7.906;2022-11-14T05:05:02;51.75;;;27.08;;
20056;SDS011;10189;49.546;7.906;2022-11-14T05:07:46;52.83;;;26.70;;
20056;SDS011;10189;49.546;7.906;2022-11-14T05:10:31;54.00;;;28.67;;
20056;SDS011;10189;49.546;7.906;2022-11-14T05:13:16;56.22;;;27.77;;
20056;SDS011;10189;49.546;7.906;2022-11-14T05:16:00;56.65;;;29.58;;
20056;SDS011;10189;49.546;7.906;2022-11-14T05:18:45;55.60;;;29.05;;
20056;SDS011;10189;49.546;7.906;2022-11-14T05:21:30;57.35;;;28.77;;
20056;SDS011;10189;49.546;7.906;2022-11-14T05:24:14;56.10;;;29.90;;
20056;SDS011;10189;49.546;7.906;2022-11-14T05:26:59;52.97;;;28.25;;
20056;SDS011;10189;49.546;7.906;2022-11-14T05:29:43;54.20;;;27.73;;
20056;SDS011;10189;49.546;7.906;2022-11-14T05:32:28;59.28;;;28.67;;
20056;SDS011;10189;49.546;7.906;2022-11-14T05:35:12;60.70;;;29.00;;
20056;SDS011;10189;49.546;7.906;2022-11-14T05:37:59;50.13;;;27.60;;
20056;SDS011;10189;49.546;7.906;2022-11-14T05:40:45;63.60;;;29.05;;
20056;SDS011;10189;49.546;7.906;2022-11-14T05:43:29;55.40;;;27.50;;
20056;SDS011;10189;49.546;7.906;2022-11-14T05:46:14;57.35;;;29.48;;
20056;SDS011;10189;49.546;7.906;2022-11-14T05:48:59;52.78;;;27.90;;
20056;SDS011;10189;49.546;7.906;2022-11-14T05:51:44;62.28;;;30.52;;
20056;SDS011;10189;49.546;7.906;2022-11-14T05:54:28;58.85;;;29.88;;
20056;SDS011;10189;49.546;7.906;2022-11-14T05:57:13;59.10;;;29.25;;
20056;SDS011;10189;49.546;7.906;2022-11-14T05:59:58;60.45;;;30.38;;
20056;SDS011;10189;49.546;7.906;2022-11-14T06:02:42;61.20;;;30.42;;
20056;SDS011;10189;49.546;7.906;2022-11-14T06:05:28;122.53;;;72.00;;
20056;SDS011;10189;49.546;7.906;2022-11-14T06:08:13;65.47;;;31.45;;
20056;SDS011;10189;49.546;7.906;2022-11-14T06:11:02;63.50;;;31.42;;
20056;SDS011;10189;49.546;7.906;2022-11-14T06:13:47;164.02;;;125.63;;
20056;SDS011;10189;49.546;7.906;2022-11-14T06:16:32;74.03;;;43.75;;
20056;SDS011;10189;49.546;7.906;2022-11-14T06:19:17;67.97;;;31.98;;
20056;SDS011;10189;49.546;7.906;2022-11-14T06:22:01;63.20;;;31.60;;
20056;SDS011;10189;49.546;7.906;2022-11-14T06:24:46;62.83;;;30.42;;
20056;SDS011;10189;49.546;7.906;2022-11-14T06:27:30;67.78;;;32.60;;
20056;SDS011;10189;49.546;7.906;2022-11-14T06:30:15;61.95;;;31.15;;
20056;SDS011;10189;49.546;7.906;2022-11-14T06:33:00;64.60;;;30.60;;
20056;SDS011;10189;49.546;7.906;2022-11-14T06:35:45;72.22;;;35.28;;
20056;SDS011;10189;49.546;7.906;2022-11-14T06:38:29;60.55;;;30.92;;
20056;SDS011;10189;49.546;7.906;2022-11-14T06:41:16;62.13;;;30.20;;
20056;SDS011;10189;49.546;7.906;2022-11-14T06:44:06;64.55;;;31.75;;
20056;SDS011;10189;49.546;7.906;2022-11-14T06:46:52;64.70;;;30.17;;
20056;SDS011;10189;49.546;7.906;2022-11-14T06:49:36;62.28;;;30.30;;
20056;SDS011;10189;49.546;7.906;2022-11-14T06:52:21;61.33;;;30.85;;
20056;SDS011;10189;49.546;7.906;2022-11-14T06:55:05;58.03;;;30.13;;
20056;SDS011;10189;49.546;7.906;2022-11-14T06:57:53;61.97;;;30.98;;
20056;SDS011;10189;49.546;7.906;2022-11-14T07:00:38;63.85;;;30.35;;
20056;SDS011;10189;49.546;7.906;2022-11-14T07:03:22;59.25;;;32.30;;
20056;SDS011;10189;49.546;7.906;2022-11-14T07:06:08;60.13;;;30.50;;
20056;SDS011;10189;49.546;7.906;2022-11-14T07:08:55;57.42;;;29.80;;
20056;SDS011;10189;49.546;7.906;2022-11-14T07:11:40;141.00;;;82.70;;
20056;SDS011;10189;49.546;7.906;2022-11-14T07:14:27;54.22;;;29.30;;
20056;SDS011;10189;49.546;7.906;2022-11-14T07:17:12;77.13;;;30.67;;
20056;SDS011;10189;49.546;7.906;2022-11-14T07:19:56;58.10;;;28.60;;
20056;SDS011;10189;49.546;7.906;2022-11-14T07:22:41;76.93;;;27.52;;
20056;SDS011;10189;49.546;7.906;2022-11-14T07:25:29;64.47;;;28.27;;
20056;SDS011;10189;49.546;7.906;2022-11-14T07:28:13;69.63;;;29.25;;
20056;SDS011;10189;49.546;7.906;2022-11-14T07:30:58;58.03;;;26.00;;
20056;SDS011;10189;49.546;7.906;2022-11-14T07:33:46;68.57;;;26.25;;
20056;SDS011;10189;49.546;7.906;2022-11-14T07:36:30;74.25;;;25.67;;
20056;SDS011;10189;49.546;7.906;2022-11-14T07:39:15;65.57;;;33.17;;
20056;SDS011;10189;49.546;7.906;2022-11-14T07:42:00;58.78;;;28.02;;
20056;SDS011;10189;49.546;7.906;2022-11-14T07:44:44;45.78;;;26.50;;
20056;SDS011;10189;49.546;7.906;2022-11-14T07:47:29;65.18;;;24.67;;
20056;SDS011;10189;49.546;7.906;2022-11-14T07:50:13;101.00;;;27.95;;
20056;SDS011;10189;49.546;7.906;2022-11-14T07:52:58;46.85;;;26.23;;
20056;SDS011;10189;49.546;7.906;2022-11-14T07:55:43;47.53;;;25.27;;
20056;SDS011;10189;49.546;7.906;2022-11-14T07:58:27;52.22;;;25.33;;
20056;SDS011;10189;49.546;7.906;2022-11-14T08:01:12;58.78;;;25.90;;
20056;SDS011;10189;49.546;7.906;2022-11-14T08:03:57;58.97;;;25.35;;
20056;SDS011;10189;49.546;7.906;2022-11-14T08:06:42;58.15;;;24.63;;
20056;SDS011;10189;49.546;7.906;2022-11-14T08:09:27;63.88;;;25.42;;
20056;SDS011;10189;49.546;7.906;2022-11-14T08:12:11;42.13;;;25.80;;
20056;SDS011;10189;49.546;7.906;2022-11-14T08:14:56;53.17;;;24.65;;
20056;SDS011;10189;49.546;7.906;2022-11-14T08:17:41;57.30;;;27.52;;
20056;SDS011;10189;49.546;7.906;2022-11-14T08:20:26;64.35;;;24.90;;
20056;SDS011;10189;49.546;7.906;2022-11-14T08:23:11;71.25;;;28.98;;
20056;SDS011;10189;49.546;7.906;2022-11-14T08:25:57;49.92;;;22.65;;
20056;SDS011;10189;49.546;7.906;2022-11-14T08:28:42;49.45;;;24.00;;
20056;SDS011;10189;49.546;7.906;2022-11-14T08:31:27;44.58;;;23.35;;
20056;SDS011;10189;49.546;7.906;2022-11-14T08:34:12;52.75;;;26.48;;
20056;SDS011;10189;49.546;7.906;2022-11-14T08:36:56;40.42;;;23.73;;
20056;SDS011;10189;49.546;7.906;2022-11-14T08:39:41;42.47;;;22.90;;
20056;SDS011;10189;49.546;7.906;2022-11-14T08:42:26;37.75;;;22.30;;
20056;SDS011;10189;49.546;7.906;2022-11-14T08:45:11;34.65;;;22.17;;
20056;SDS011;10189;49.546;7.906;2022-11-14T08:47:56;38.50;;;23.63;;
20056;SDS011;10189;49.546;7.906;2022-11-14T08:50:40;37.85;;;23.13;;
20056;SDS011;10189;49.546;7.906;2022-11-14T08:53:25;37.88;;;22.33;;
20056;SDS011;10189;49.546;7.906;2022-11-14T08:56:10;38.33;;;22.42;;
20056;SDS011;10189;49.546;7.906;2022-11-14T08:58:54;32.10;;;20.33;;
20056;SDS011;10189;49.546;7.906;2022-11-14T09:01:39;38.20;;;23.83;;
20056;SDS011;10189;49.546;7.906;2022-11-14T09:04:23;33.90;;;21.73;;
20056;SDS011;10189;49.546;7.906;2022-11-14T09:07:08;34.40;;;22.10;;
20056;SDS011;10189;49.546;7.906;2022-11-14T09:09:53;36.95;;;21.50;;
20056;SDS011;10189;49.546;7.906;2022-11-14T09:12:37;39.85;;;20.83;;
20056;SDS011;10189;49.546;7.906;2022-11-14T09:15:22;31.88;;;20.63;;
20056;SDS011;10189;49.546;7.906;2022-11-14T09:18:07;35.53;;;20.35;;
20056;SDS011;10189;49.546;7.906;2022-11-14T09:20:58;32.85;;;20.38;;
20056;SDS011;10189;49.546;7.906;2022-11-14T09:23:47;29.80;;;19.08;;
20056;SDS011;10189;49.546;7.906;2022-11-14T09:26:32;31.58;;;19.50;;
20056;SDS011;10189;49.546;7.906;2022-11-14T09:29:16;73.40;;;41.47;;
20056;SDS011;10189;49.546;7.906;2022-11-14T09:32:01;48.13;;;30.23;;
20056;SDS011;10189;49.546;7.906;2022-11-14T09:34:46;28.13;;;18.23;;
20056;SDS011;10189;49.546;7.906;2022-11-14T09:37:30;41.38;;;26.77;;
20056;SDS011;10189;49.546;7.906;2022-11-14T09:40:15;27.42;;;18.02;;
20056;SDS011;10189;49.546;7.906;2022-11-14T09:46:30;26.42;;;17.88;;
20056;SDS011;10189;49.546;7.906;2022-11-14T09:49:48;26.30;;;18.37;;
20056;SDS011;10189;49.546;7.906;2022-11-14T09:52:40;24.67;;;16.60;;
20056;SDS011;10189;49.546;7.906;2022-11-14T09:55:41;25.10;;;17.38;;
20056;SDS011;10189;49.546;7.906;2022-11-14T09:58:25;24.38;;;17.33;;
20056;SDS011;10189;49.546;7.906;2022-11-14T10:01:34;33.90;;;23.20;;
20056;SDS011;10189;49.546;7.906;2022-11-14T10:11:05;23.17;;;18.30;;
20056;SDS011;10189;49.546;7.906;2022-11-14T10:14:40;26.13;;;19.52;;
20056;SDS011;10189;49.546;7.906;2022-11-14T10:24:12;25.77;;;17.63;;
20056;SDS011;10189;49.546;7.906;2022-11-14T10:27:53;23.08;;;17.20;;
20056;SDS011;10189;49.546;7.906;2022-11-14T10:30:39;23.35;;;17.80;;
20056;SDS011;10189;49.546;7.906;2022-11-14T10:33:55;26.37;;;19.77;;
20056;SDS011;10189;49.546;7.906;2022-11-14T10:39:53;37.53;;;25.92;;
20056;SDS011;10189;49.546;7.906;2022-11-14T10:42:54;28.45;;;20.63;;
20056;SDS011;10189;49.546;7.906;2022-11-14T10:45:49;27.33;;;20.02;;
20056;SDS011;10189;49.546;7.906;2022-11-14T10:48:52;27.45;;;19.58;;
20056;SDS011;10189;49.546;7.906;2022-11-14T10:51:41;27.40;;;19.27;;
20056;SDS011;10189;49.546;7.906;2022-11-14T10:54:32;27.15;;;19.55;;
20056;SDS011;10189;49.546;7.906;2022-11-14T10:57:46;26.35;;;20.02;;
20056;SDS011;10189;49.546;7.906;2022-11-14T11:00:31;30.02;;;22.08;;
20056;SDS011;10189;49.546;7.906;2022-11-14T11:03:15;25.17;;;18.63;;
20056;SDS011;10189;49.546;7.906;2022-11-14T11:06:00;25.88;;;19.33;;
20056;SDS011;10189;49.546;7.906;2022-11-14T11:08:45;28.00;;;19.95;;
20056;SDS011;10189;49.546;7.906;2022-11-14T11:11:53;23.38;;;17.25;;
20056;SDS011;10189;49.546;7.906;2022-11-14T11:14:41;22.23;;;16.65;;
20056;SDS011;10189;49.546;7.906;2022-11-14T11:17:32;21.52;;;16.38;;
20056;SDS011;10189;49.546;7.906;2022-11-14T11:23:26;20.08;;;15.98;;
20056;SDS011;10189;49.546;7.906;2022-11-14T11:29:16;19.15;;;15.32;;
20056;SDS011;10189;49.546;7.906;2022-11-14T11:32:02;20.58;;;15.68;;
20056;SDS011;10189;49.546;7.906;2022-11-14T11:34:46;52.92;;;36.97;;
20056;SDS011;10189;49.546;7.906;2022-11-14T11:37:35;26.45;;;19.65;;
20056;SDS011;10189;49.546;7.906;2022-11-14T11:40:39;21.25;;;17.33;;
20056;SDS011;10189;49.546;7.906;2022-11-14T11:43:44;41.58;;;29.42;;
20056;SDS011;10189;49.546;7.906;2022-11-14T11:46:46;19.77;;;15.05;;
20056;SDS011;10189;49.546;7.906;2022-11-14T11:49:45;32.45;;;23.30;;
20056;SDS011;10189;49.546;7.906;2022-11-14T11:52:34;17.08;;;13.95;;
20056;SDS011;10189;49.546;7.906;2022-11-14T11:55:32;19.88;;;16.48;;
20056;SDS011;10189;49.546;7.906;2022-11-14T11:58:28;21.42;;;16.85;;
20056;SDS011;10189;49.546;7.906;2022-11-14T12:01:29;19.75;;;15.00;;
20056;SDS011;10189;49.546;7.906;2022-11-14T12:04:13;26.63;;;18.52;;
20056;SDS011;10189;49.546;7.906;2022-11-14T12:30:12;17.60;;;13.25;;
20056;SDS011;10189;49.546;7.906;2022-11-14T12:33:26;17.67;;;13.05;;
20056;SDS011;10189;49.546;7.906;2022-11-14T12:36:16;14.70;;;12.07;;
20056;SDS011;10189;49.546;7.906;2022-11-14T12:39:00;27.73;;;21.75;;
20056;SDS011;10189;49.546;7.906;2022-11-14T12:41:45;15.68;;;12.98;;
20056;SDS011;10189;49.546;7.906;2022-11-14T12:44:31;15.43;;;12.50;;
20056;SDS011;10189;49.546;7.906;2022-11-14T12:47:18;16.15;;;12.20;;
20056;SDS011;10189;49.546;7.906;2022-11-14T12:50:26;12.93;;;10.63;;
20056;SDS011;10189;49.546;7.906;2022-11-14T13:05:21;18.23;;;14.35;;
20056;SDS011;10189;49.546;7.906;2022-11-14T13:11:57;17.02;;;13.80;;
20056;SDS011;10189;49.546;7.906;2022-11-14T13:15:27;36.20;;;24.63;;
20056;SDS011;10189;49.546;7.906;2022-11-14T13:18:55;22.52;;;16.67;;
20056;SDS011;10189;49.546;7.906;2022-11-14T13:27:43;17.50;;;13.82;;
20056;SDS011;10189;49.546;7.906;2022-11-14T13:33:57;19.05;;;14.68;;
20056;SDS011;10189;49.546;7.906;2022-11-14T13:43:56;16.17;;;12.88;;
20056;SDS011;10189;49.546;7.906;2022-11-14T13:50:14;20.80;;;14.60;;
20056;SDS011;10189;49.546;7.906;2022-11-14T13:53:12;15.70;;;11.77;;
20056;SDS011;10189;49.546;7.906;2022-11-14T14:08:27;14.15;;;10.80;;
20056;SDS011;10189;49.546;7.906;2022-11-14T14:11:42;14.18;;;11.77;;
20056;SDS011;10189;49.546;7.906;2022-11-14T14:21:01;13.93;;;10.60;;
20056;SDS011;10189;49.546;7.906;2022-11-14T14:27:21;13.95;;;10.60;;
20056;SDS011;10189;49.546;7.906;2022-11-14T14:30:16;16.75;;;11.82;;
20056;SDS011;10189;49.546;7.906;2022-11-14T14:35:51;16.65;;;10.95;;
20056;SDS011;10189;49.546;7.906;2022-11-14T14:38:36;15.00;;;10.57;;
20056;SDS011;10189;49.546;7.906;2022-11-14T14:41:21;16.30;;;10.80;;
20056;SDS011;10189;49.546;7.906;2022-11-14T14:44:10;14.70;;;10.43;;
20056;SDS011;10189;49.546;7.906;2022-11-14T14:50:23;39.38;;;25.10;;
20056;SDS011;10189;49.546;7.906;2022-11-14T14:56:16;41.42;;;30.10;;
20056;SDS011;10189;49.546;7.906;2022-11-14T14:59:14;27.77;;;17.17;;
20056;SDS011;10189;49.546;7.906;2022-11-14T15:04:57;45.55;;;30.15;;
20056;SDS011;10189;49.546;7.906;2022-11-14T15:07:44;34.92;;;23.90;;
20056;SDS011;10189;49.546;7.906;2022-11-14T15:10:29;57.42;;;39.55;;
20056;SDS011;10189;49.546;7.906;2022-11-14T15:13:16;85.47;;;56.85;;
20056;SDS011;10189;49.546;7.906;2022-11-14T15:16:02;23.85;;;16.42;;
20056;SDS011;10189;49.546;7.906;2022-11-14T15:18:49;78.38;;;54.22;;
20056;SDS011;10189;49.546;7.906;2022-11-14T15:21:36;26.48;;;16.45;;
20056;SDS011;10189;49.546;7.906;2022-11-14T15:24:21;107.50;;;58.90;;
20056;SDS011;10189;49.546;7.906;2022-11-14T15:30:03;63.78;;;38.42;;
20056;SDS011;10189;49.546;7.906;2022-11-14T15:33:03;13.95;;;11.10;;
20056;SDS011;10189;49.546;7.906;2022-11-14T15:36:09;28.65;;;18.88;;
20056;SDS011;10189;49.546;7.906;2022-11-14T15:39:22;39.63;;;27.52;;
20056;SDS011;10189;49.546;7.906;2022-11-14T15:42:12;16.30;;;11.20;;
20056;SDS011;10189;49.546;7.906;2022-11-14T15:48:11;24.30;;;19.08;;
20056;SDS011;10189;49.546;7.906;2022-11-14T15:51:00;14.05;;;11.57;;
20056;SDS011;10189;49.546;7.906;2022-11-14T15:53:46;26.08;;;19.50;;
20056;SDS011;10189;49.546;7.906;2022-11-14T15:56:32;18.17;;;11.70;;
20056;SDS011;10189;49.546;7.906;2022-11-14T15:59:17;21.83;;;16.70;;
20056;SDS011;10189;49.546;7.906;2022-11-14T16:02:13;39.33;;;28.80;;
20056;SDS011;10189;49.546;7.906;2022-11-14T16:05:05;17.95;;;12.75;;
20056;SDS011;10189;49.546;7.906;2022-11-14T16:07:55;30.58;;;18.77;;
20056;SDS011;10189;49.546;7.906;2022-11-14T16:10:40;19.42;;;15.25;;
20056;SDS011;10189;49.546;7.906;2022-11-14T16:13:25;18.25;;;14.18;;
20056;SDS011;10189;49.546;7.906;2022-11-14T16:16:09;19.20;;;13.05;;
20056;SDS011;10189;49.546;7.906;2022-11-14T16:18:54;23.40;;;16.45;;
20056;SDS011;10189;49.546;7.906;2022-11-14T16:21:39;23.88;;;19.00;;
20056;SDS011;10189;49.546;7.906;2022-11-14T16:24:24;19.20;;;14.77;;
20056;SDS011;10189;49.546;7.906;2022-11-14T16:27:09;47.65;;;31.73;;
20056;SDS011;10189;49.546;7.906;2022-11-14T16:29:54;35.80;;;26.48;;
20056;SDS011;10189;49.546;7.906;2022-11-14T16:32:38;25.20;;;17.38;;
20056;SDS011;10189;49.546;7.906;2022-11-14T16:35:25;21.17;;;15.50;;
20056;SDS011;10189;49.546;7.906;2022-11-14T16:38:11;17.10;;;11.23;;
20056;SDS011;10189;49.546;7.906;2022-11-14T16:40:56;29.88;;;19.60;;
20056;SDS011;10189;49.546;7.906;2022-11-14T16:43:42;19.35;;;13.30;;
20056;SDS011;10189;49.546;7.906;2022-11-14T16:46:27;18.98;;;11.70;;
20056;SDS011;10189;49.546;7.906;2022-11-14T16:49:15;19.67;;;13.27;;
20056;SDS011;10189;49.546;7.906;2022-11-14T16:52:02;16.10;;;11.80;;
20056;SDS011;10189;49.546;7.906;2022-11-14T16:54:51;17.83;;;13.73;;
20056;SDS011;10189;49.546;7.906;2022-11-14T16:57:35;15.98;;;12.30;;
20056;SDS011;10189;49.546;7.906;2022-11-14T17:00:21;25.83;;;18.20;;
20056;SDS011;10189;49.546;7.906;2022-11-14T17:03:05;21.20;;;14.82;;
20056;SDS011;10189;49.546;7.906;2022-11-14T17:05:50;19.60;;;12.80;;
20056;SDS011;10189;49.546;7.906;2022-11-14T17:08:35;12.75;;;10.65;;
20056;SDS011;10189;49.546;7.906;2022-11-14T17:11:21;17.33;;;11.80;;
20056;SDS011;10189;49.546;7.906;2022-11-14T17:14:06;23.88;;;12.98;;
20056;SDS011;10189;49.546;7.906;2022-11-14T17:16:51;19.83;;;13.70;;
20056;SDS011;10189;49.546;7.906;2022-11-14T17:19:35;30.88;;;20.63;;
20056;SDS011;10189;49.546;7.906;2022-11-14T17:22:21;15.32;;;11.77;;
20056;SDS011;10189;49.546;7.906;2022-11-14T17:25:06;44.05;;;27.10;;
20056;SDS011;10189;49.546;7.906;2022-11-14T17:27:50;21.02;;;13.95;;
20056;SDS011;10189;49.546;7.906;2022-11-14T17:30:41;41.30;;;24.20;;
20056;SDS011;10189;49.546;7.906;2022-11-14T17:36:10;58.13;;;35.58;;
20056;SDS011;10189;49.546;7.906;2022-11-14T17:38:55;32.67;;;18.88;;
20056;SDS011;10189;49.546;7.906;2022-11-14T17:41:41;53.60;;;36.15;;
20056;SDS011;10189;49.546;7.906;2022-11-14T17:44:26;50.45;;;30.52;;
20056;SDS011;10189;49.546;7.906;2022-11-14T17:47:10;18.20;;;12.55;;
20056;SDS011;10189;49.546;7.906;2022-11-14T17:49:55;27.98;;;17.65;;
20056;SDS011;10189;49.546;7.906;2022-11-14T17:52:39;16.27;;;12.07;;
20056;SDS011;10189;49.546;7.906;2022-11-14T17:55:24;10.95;;;8.50;;
20056;SDS011;10189;49.546;7.906;2022-11-14T17:58:09;16.33;;;11.35;;
20056;SDS011;10189;49.546;7.906;2022-11-14T18:00:54;14.50;;;10.27;;
20056;SDS011;10189;49.546;7.906;2022-11-14T18:03:41;15.10;;;11.35;;
20056;SDS011;10189;49.546;7.906;2022-11-14T18:06:25;35.35;;;31.50;;
20056;SDS011;10189;49.546;7.906;2022-11-14T18:09:10;15.65;;;10.90;;
20056;SDS011;10189;49.546;7.906;2022-11-14T18:11:55;18.85;;;15.38;;
20056;SDS011;10189;49.546;7.906;2022-11-14T18:14:39;18.48;;;13.70;;
20056;SDS011;10189;49.546;7.906;2022-11-14T18:17:24;20.08;;;14.85;;
20056;SDS011;10189;49.546;7.906;2022-11-14T18:20:10;22.63;;;16.55;;
20056;SDS011;10189;49.546;7.906;2022-11-14T18:22:54;14.07;;;11.38;;
20056;SDS011;10189;49.546;7.906;2022-11-14T18:25:39;14.85;;;11.23;;
20056;SDS011;10189;49.546;7.906;2022-11-14T18:28:24;41.45;;;30.45;;
20056;SDS011;10189;49.546;7.906;2022-11-14T18:31:09;11.30;;;9.88;;
20056;SDS011;10189;49.546;7.906;2022-11-14T18:33:54;40.72;;;31.60;;
20056;SDS011;10189;49.546;7.906;2022-11-14T18:36:39;10.45;;;8.95;;